createdAt,value
2017-05-27T00:00:57.889Z,75.8
2017-05-27T00:02:05.371Z,75.9
2017-05-27T00:03:13.391Z,77
2017-05-27T00:04:20.867Z,76.8
2017-05-27T00:05:28.035Z,77.2
2017-05-27T00:06:35.519Z,76.9
2017-05-27T00:07:43.001Z,77.5
2017-05-27T00:08:50.795Z,76.9
2017-05-27T00:09:58.278Z,75.5
2017-05-27T00:11:05.758Z,76.3
2017-05-27T00:12:13.245Z,77.3
2017-05-27T00:13:20.727Z,77.4
2017-05-27T00:14:28.509Z,76.7
2017-05-27T00:15:35.998Z,75.9
2017-05-27T00:16:43.480Z,76.2
2017-05-27T00:17:50.958Z,76.7
2017-05-27T00:18:58.444Z,75.9
2017-05-27T00:20:06.221Z,76.2
2017-05-27T00:21:13.708Z,76.4
2017-05-27T00:22:21.190Z,76.4
2017-05-27T00:23:28.346Z,75.1
2017-05-27T00:24:35.498Z,76.6
2017-05-27T00:25:43.275Z,76.6
2017-05-27T00:26:50.763Z,75.5
2017-05-27T00:27:57.910Z,75.8
2017-05-27T00:29:05.065Z,74.9
2017-05-27T00:30:12.548Z,76.6
2017-05-27T00:31:20.327Z,75.4
2017-05-27T00:32:27.810Z,76.7
2017-05-27T00:33:35.296Z,76
2017-05-27T00:34:42.773Z,75.2
2017-05-27T00:35:49.933Z,74.5
2017-05-27T00:36:57.714Z,76.8
2017-05-27T00:38:04.855Z,75.9
2017-05-27T00:39:12.336Z,77.2
2017-05-27T00:40:19.821Z,76.7
2017-05-27T00:41:27.310Z,77.4
2017-05-27T00:42:34.771Z,75.7
2017-05-27T00:43:42.265Z,76.8
2017-05-27T00:44:49.422Z,77.9
2017-05-27T00:45:56.903Z,78
2017-05-27T00:47:04.390Z,77.5
2017-05-27T00:48:12.174Z,77.7
2017-05-27T00:49:19.659Z,76.9
2017-05-27T00:50:27.144Z,77.3
2017-05-27T00:51:34.627Z,77.4
2017-05-27T00:52:42.104Z,77.7
2017-05-27T00:53:49.562Z,77.7
2017-05-27T00:54:57.046Z,77.5
2017-05-27T00:56:04.527Z,78
2017-05-27T00:57:11.683Z,76.9
2017-05-27T00:58:19.161Z,77.7
2017-05-27T00:59:26.607Z,75.6
2017-05-27T01:00:34.084Z,76.6
2017-05-27T01:01:41.566Z,77.3
2017-05-27T01:02:48.714Z,77.3
2017-05-27T01:03:56.252Z,77.2
2017-05-27T01:05:04.039Z,78
2017-05-27T01:06:11.519Z,76.6
2017-05-27T01:07:18.997Z,75.9
2017-05-27T01:08:26.476Z,78.6
2017-05-27T01:09:33.958Z,79.1
2017-05-27T01:10:41.686Z,78.1
2017-05-27T01:11:49.175Z,78.5
2017-05-27T01:12:56.325Z,76.7
2017-05-27T01:14:03.809Z,78.5
2017-05-27T01:15:11.289Z,78.1
2017-05-27T01:16:19.067Z,77.5
2017-05-27T01:17:26.955Z,77.7
2017-05-27T01:18:34.441Z,79.2
2017-05-27T01:19:41.922Z,77.6
2017-05-27T01:20:49.402Z,79.7
2017-05-27T01:21:57.191Z,79.5
2017-05-27T01:23:04.671Z,78.6
2017-05-27T01:24:12.154Z,79.3
2017-05-27T01:25:19.304Z,78.7
2017-05-27T01:26:26.792Z,79.5
2017-05-27T01:27:34.567Z,77.4
2017-05-27T01:28:42.052Z,78.5
2017-05-27T01:29:49.533Z,77.8
2017-05-27T01:30:57.015Z,77
2017-05-27T01:32:04.172Z,76.7
2017-05-27T01:33:11.952Z,77.8
2017-05-27T01:34:19.445Z,78.4
2017-05-27T01:35:26.614Z,78.2
2017-05-27T01:36:33.773Z,77.6
2017-05-27T01:37:41.254Z,78
2017-05-27T01:38:49.053Z,79.1
2017-05-27T01:39:56.527Z,79
2017-05-27T01:41:03.671Z,79.4
2017-05-27T01:42:11.155Z,79
2017-05-27T01:43:18.637Z,77.9
2017-05-27T01:44:26.417Z,78.8
2017-05-27T01:45:33.899Z,78.5
2017-05-27T01:46:41.382Z,78.5
2017-05-27T01:47:48.860Z,79.2
2017-05-27T01:48:56.007Z,76.8
2017-05-27T01:50:03.789Z,79
2017-05-27T01:51:10.935Z,78.7
2017-05-27T01:52:18.412Z,79
2017-05-27T01:53:25.892Z,81.5
2017-05-27T01:54:33.372Z,80.9
2017-05-27T01:55:41.157Z,81.6
2017-05-27T01:56:48.640Z,83.3
2017-05-27T01:57:56.121Z,84.1
2017-05-27T01:59:03.603Z,82.9
2017-05-27T02:00:11.088Z,83
2017-05-27T02:01:18.917Z,84
2017-05-27T02:02:26.398Z,84.8
2017-05-27T02:03:33.886Z,84.9
2017-05-27T02:04:41.032Z,84
2017-05-27T02:05:48.754Z,85.1
2017-05-27T02:06:56.576Z,84.6
2017-05-27T02:08:04.057Z,83.7
2017-05-27T02:09:11.538Z,84.5
2017-05-27T02:10:19.020Z,84.8
2017-05-27T02:11:26.499Z,85.1
2017-05-27T02:12:34.280Z,84.9
2017-05-27T02:13:41.766Z,84.2
2017-05-27T02:14:49.251Z,83
2017-05-27T02:15:56.731Z,85.1
2017-05-27T02:17:03.882Z,84.4
2017-05-27T02:18:11.712Z,84.7
2017-05-27T02:19:19.195Z,85.4
2017-05-27T02:20:26.683Z,84.9
2017-05-27T02:21:34.165Z,84.9
2017-05-27T02:22:41.648Z,83.2
2017-05-27T02:23:49.100Z,82.3
2017-05-27T02:24:56.575Z,85.1
2017-05-27T02:26:04.068Z,85.3
2017-05-27T02:27:11.540Z,83.6
2017-05-27T02:28:19.031Z,85
2017-05-27T02:29:26.482Z,84.7
2017-05-27T02:30:33.962Z,84.9
2017-05-27T02:31:41.445Z,85
2017-05-27T02:32:48.926Z,84.7
2017-05-27T02:33:56.412Z,83.6
2017-05-27T02:35:03.914Z,85.4
2017-05-27T02:36:11.060Z,85.2
2017-05-27T02:37:18.215Z,84.8
2017-05-27T02:38:25.699Z,84.6
2017-05-27T02:39:33.178Z,84.4
2017-05-27T02:40:40.622Z,84.2
2017-05-27T02:41:48.109Z,83.8
2017-05-27T02:42:55.594Z,84.4
2017-05-27T02:44:03.082Z,84.8
2017-05-27T02:45:10.568Z,83.7
2017-05-27T02:46:18.023Z,84.6
2017-05-27T02:47:25.504Z,85.1
2017-05-27T02:48:32.986Z,83.7
2017-05-27T02:49:40.464Z,83.1
2017-05-27T02:50:47.940Z,83.9
2017-05-27T02:51:55.721Z,83.4
2017-05-27T02:53:03.202Z,85.3
2017-05-27T02:54:10.681Z,84
2017-05-27T02:55:18.166Z,83.1
2017-05-27T02:56:25.643Z,81.8
2017-05-27T02:57:33.428Z,82.1
2017-05-27T02:58:40.578Z,81.5
2017-05-27T02:59:48.056Z,81.5
2017-05-27T03:00:55.538Z,81.8
2017-05-27T03:02:03.028Z,81.3
2017-05-27T03:03:10.805Z,82.1
2017-05-27T03:04:18.291Z,80.9
2017-05-27T03:05:25.767Z,80.8
2017-05-27T03:06:33.251Z,82.1
2017-05-27T03:07:41.140Z,82.4
2017-05-27T03:08:48.916Z,82.2
2017-05-27T03:09:56.400Z,82.7
2017-05-27T03:11:03.876Z,82.8
2017-05-27T03:12:10.697Z,82
2017-05-27T03:13:18.174Z,82.3
2017-05-27T03:14:26.003Z,82.7
2017-05-27T03:15:33.146Z,82.2
2017-05-27T03:16:40.648Z,80.8
2017-05-27T03:17:48.125Z,82.9
2017-05-27T03:18:55.604Z,82.6
2017-05-27T03:20:03.106Z,82.9
2017-05-27T03:21:10.582Z,82
2017-05-27T03:22:18.062Z,83.1
2017-05-27T03:23:25.220Z,82.3
2017-05-27T03:24:32.044Z,82.9
2017-05-27T03:25:39.228Z,82.5
2017-05-27T03:26:46.373Z,81.2
2017-05-27T03:27:53.857Z,83.9
2017-05-27T03:29:01.008Z,83.4
2017-05-27T03:30:08.156Z,83.2
2017-05-27T03:31:15.006Z,82.8
2017-05-27T03:32:22.482Z,83.6
2017-05-27T03:33:29.964Z,82.5
2017-05-27T03:34:37.444Z,83.2
2017-05-27T03:35:44.922Z,81.8
2017-05-27T03:36:52.703Z,84.1
2017-05-27T03:38:00.184Z,83.6
2017-05-27T03:39:07.716Z,81.6
2017-05-27T03:40:15.204Z,84
2017-05-27T03:41:22.682Z,83.6
2017-05-27T03:42:30.468Z,82.1
2017-05-27T03:43:37.943Z,82.7
2017-05-27T03:44:45.421Z,82.8
2017-05-27T03:45:52.635Z,83.1
2017-05-27T03:47:00.114Z,83.8
2017-05-27T03:48:07.889Z,83.3
2017-05-27T03:49:15.368Z,84.2
2017-05-27T03:50:22.849Z,83.8
2017-05-27T03:51:30.331Z,84
2017-05-27T03:52:37.814Z,84.4
2017-05-27T03:53:45.599Z,82.9
2017-05-27T03:54:53.082Z,84.3
2017-05-27T03:56:00.562Z,84.6
2017-05-27T03:57:07.715Z,83.3
2017-05-27T03:58:15.195Z,84.1
2017-05-27T03:59:22.977Z,83.8
2017-05-27T04:00:30.126Z,83.9
2017-05-27T04:01:37.614Z,83.3
2017-05-27T04:02:45.094Z,83.3
2017-05-27T04:03:52.577Z,82.8
2017-05-27T04:05:00.355Z,84.2
2017-05-27T04:06:07.831Z,82.7
2017-05-27T04:07:15.316Z,83.7
2017-05-27T04:08:22.802Z,82.6
2017-05-27T04:09:29.951Z,82.4
2017-05-27T04:10:37.728Z,83.2
2017-05-27T04:11:45.212Z,83
2017-05-27T04:12:52.688Z,82.7
2017-05-27T04:14:00.168Z,82.5
2017-05-27T04:15:07.659Z,82.9
2017-05-27T04:16:15.435Z,83.8
2017-05-27T04:17:22.912Z,82.8
2017-05-27T04:18:30.390Z,83.9
2017-05-27T04:19:37.868Z,83.3
2017-05-27T04:20:45.349Z,85.2
2017-05-27T04:21:53.129Z,84.4
2017-05-27T04:23:00.616Z,84.8
2017-05-27T04:24:08.090Z,84.3
2017-05-27T04:25:15.245Z,84.5
2017-05-27T04:26:22.722Z,83.6
2017-05-27T04:27:30.502Z,83.3
2017-05-27T04:28:37.982Z,83.4
2017-05-27T04:29:45.466Z,84.5
2017-05-27T04:30:52.951Z,85.3
2017-05-27T04:32:00.431Z,86.3
2017-05-27T04:33:08.205Z,86.5
2017-05-27T04:34:15.685Z,85.1
2017-05-27T04:35:23.168Z,84.4
2017-05-27T04:36:30.344Z,85
2017-05-27T04:37:37.830Z,84.9
2017-05-27T04:38:45.274Z,84.1
2017-05-27T04:39:52.758Z,85.1
2017-05-27T04:41:00.238Z,87.1
2017-05-27T04:42:07.722Z,86.9
2017-05-27T04:43:15.207Z,87.2
2017-05-27T04:44:22.986Z,87.6
2017-05-27T04:45:30.148Z,87.5
2017-05-27T04:46:37.627Z,88.2
2017-05-27T04:47:45.104Z,87.7
2017-05-27T04:48:52.582Z,85.7
2017-05-27T04:50:00.362Z,85.2
2017-05-27T04:51:07.848Z,84.2
2017-05-27T04:52:15.332Z,83.7
2017-05-27T04:53:22.813Z,84.1
2017-05-27T04:54:30.294Z,85.7
2017-05-27T04:55:38.070Z,85.3
2017-05-27T04:56:45.549Z,85.2
2017-05-27T04:57:53.024Z,87.6
2017-05-27T04:59:00.508Z,89.1
2017-05-27T05:00:07.322Z,88.5
2017-05-27T05:01:15.104Z,88.1
2017-05-27T05:02:22.593Z,87.7
2017-05-27T05:03:30.081Z,87.6
2017-05-27T05:04:37.560Z,87.9
2017-05-27T05:05:45.037Z,88.3
2017-05-27T05:06:52.817Z,88.4
2017-05-27T05:08:00.304Z,88.5
2017-05-27T05:09:07.468Z,87.6
2017-05-27T05:10:14.940Z,86.3
2017-05-27T05:11:22.426Z,86
2017-05-27T05:12:29.925Z,87.4
2017-05-27T05:13:37.406Z,86.2
2017-05-27T05:14:44.885Z,85.4
2017-05-27T05:15:52.365Z,88.4
2017-05-27T05:16:59.842Z,88.7
2017-05-27T05:18:07.350Z,88.1
2017-05-27T05:19:14.501Z,88.6
2017-05-27T05:20:21.983Z,88.8
2017-05-27T05:21:29.462Z,88.7
2017-05-27T05:22:37.169Z,88.4
2017-05-27T05:23:44.950Z,87.9
2017-05-27T05:24:52.126Z,88
2017-05-27T05:25:59.606Z,88
2017-05-27T05:27:07.084Z,88
2017-05-27T05:28:14.566Z,87.6
2017-05-27T05:29:22.348Z,87.3
2017-05-27T05:30:29.825Z,87.4
2017-05-27T05:31:36.981Z,86.9
2017-05-27T05:32:44.459Z,87.3
2017-05-27T05:33:51.942Z,86.8
2017-05-27T05:34:59.724Z,86.8
2017-05-27T05:36:07.201Z,86.4
2017-05-27T05:37:14.693Z,86.9
2017-05-27T05:38:22.182Z,86.6
2017-05-27T05:39:29.665Z,86.3
2017-05-27T05:40:37.441Z,86.5
2017-05-27T05:41:44.926Z,85.9
2017-05-27T05:42:52.072Z,85.8
2017-05-27T05:43:59.553Z,85.6
2017-05-27T05:45:07.037Z,85.7
2017-05-27T05:46:14.870Z,85.4
2017-05-27T05:47:22.353Z,84.7
2017-05-27T05:48:29.890Z,85.4
2017-05-27T05:49:37.371Z,84.6
2017-05-27T05:50:44.849Z,85.2
2017-05-27T05:51:52.630Z,84.2
2017-05-27T05:52:59.778Z,83.3
2017-05-27T05:54:06.925Z,83.7
2017-05-27T05:55:14.090Z,81.9
2017-05-27T05:56:21.572Z,80
2017-05-27T05:57:29.406Z,82.1
2017-05-27T05:58:36.889Z,79.6
2017-05-27T05:59:44.375Z,79.2
2017-05-27T06:00:51.853Z,76.6
2017-05-27T06:01:59.332Z,79.9
2017-05-27T06:03:07.168Z,77.3
2017-05-27T06:04:14.649Z,76.9
2017-05-27T06:05:22.139Z,78.2
2017-05-27T06:06:29.610Z,77.3
2017-05-27T06:07:36.765Z,76.7
2017-05-27T06:08:44.597Z,79.1
2017-05-27T06:09:52.084Z,76.7
2017-05-27T06:10:59.568Z,75.5
2017-05-27T06:12:06.730Z,73.7
2017-05-27T06:13:14.209Z,76.3
2017-05-27T06:14:22.045Z,74.9
2017-05-27T06:16:51.593Z,72.1
2017-05-27T06:17:59.077Z,73.2
2017-05-27T06:19:05.908Z,72.7
2017-05-27T06:20:13.749Z,71.5
2017-05-27T06:21:21.238Z,73.2
2017-05-27T06:22:28.718Z,73.5
2017-05-27T06:23:36.207Z,70.3
2017-05-27T06:24:43.684Z,71.7
2017-05-27T06:25:51.464Z,71.8
2017-05-27T06:26:58.945Z,73.1
2017-05-27T06:28:06.435Z,70.7
2017-05-27T06:29:13.919Z,69.4
2017-05-27T06:30:21.400Z,70.6
2017-05-27T06:31:28.867Z,71.7
2017-05-27T06:32:36.359Z,71
2017-05-27T06:33:43.855Z,70.9
2017-05-27T06:34:51.008Z,69.7
2017-05-27T06:35:58.168Z,70.4
2017-05-27T06:37:06.008Z,68.8
2017-05-27T06:38:13.490Z,68.2
2017-05-27T06:39:20.977Z,67.9
2017-05-27T06:40:29.882Z,67.4
2017-05-27T06:41:37.364Z,66.6
2017-05-27T06:42:45.145Z,65.5
2017-05-27T06:43:52.299Z,66.1
2017-05-27T06:44:59.779Z,66.5
2017-05-27T06:46:06.942Z,66.4
2017-05-27T06:47:14.430Z,66.6
2017-05-27T06:48:22.288Z,65.9
2017-05-27T06:49:29.768Z,65.6
2017-05-27T06:50:37.251Z,67.6
2017-05-27T06:51:44.737Z,64.9
2017-05-27T06:52:52.224Z,65.7
2017-05-27T06:54:00.014Z,66.5
2017-05-27T06:55:07.502Z,63.9
2017-05-27T06:56:14.986Z,65.1
2017-05-27T06:57:22.465Z,65.5
2017-05-27T06:58:29.622Z,63.9
2017-05-27T06:59:37.419Z,64.2
2017-05-27T07:00:44.904Z,63.6
2017-05-27T07:01:52.617Z,64.9
2017-05-27T07:03:00.099Z,64
2017-05-27T07:04:07.583Z,63.5
2017-05-27T07:05:15.421Z,63.1
2017-05-27T07:06:22.907Z,63.5
2017-05-27T07:07:30.392Z,63
2017-05-27T07:08:37.545Z,63.5
2017-05-27T07:09:45.028Z,63.4
2017-05-27T07:10:52.533Z,62.4
2017-05-27T07:11:59.691Z,63.2
2017-05-27T07:13:07.176Z,63.7
2017-05-27T07:14:14.662Z,62.3
2017-05-27T07:15:21.818Z,63.9
2017-05-27T07:16:29.609Z,60.4
2017-05-27T07:17:37.091Z,62.2
2017-05-27T07:18:44.575Z,62.7
2017-05-27T07:19:52.065Z,63.3
2017-05-27T07:20:59.554Z,61.1
2017-05-27T07:22:07.392Z,61.7
2017-05-27T07:23:14.886Z,62.8
2017-05-27T07:24:22.381Z,60.3
2017-05-27T07:25:29.872Z,61.3
2017-05-27T07:26:37.361Z,61.1
2017-05-27T07:27:45.200Z,60.3
2017-05-27T07:28:52.689Z,63.9
2017-05-27T07:30:00.174Z,59.4
2017-05-27T07:31:07.338Z,60.5
2017-05-27T07:32:14.828Z,60.2
2017-05-27T07:33:22.613Z,59.7
2017-05-27T07:34:30.101Z,59
2017-05-27T07:35:37.588Z,60.1
2017-05-27T07:36:45.074Z,60
2017-05-27T07:37:52.565Z,60.9
2017-05-27T07:39:00.356Z,61
2017-05-27T07:40:07.850Z,59.5
2017-05-27T07:41:15.335Z,59.4
2017-05-27T07:42:22.500Z,59.9
2017-05-27T07:43:29.986Z,58.1
2017-05-27T07:44:37.827Z,59.4
2017-05-27T07:45:45.313Z,58.5
2017-05-27T07:46:52.474Z,58.6
2017-05-27T07:47:59.963Z,58.2
2017-05-27T07:49:07.451Z,58.6
2017-05-27T07:50:14.972Z,58.9
2017-05-27T07:51:22.455Z,58.6
2017-05-27T07:52:29.944Z,57.4
2017-05-27T07:53:37.433Z,57.4
2017-05-27T07:54:44.921Z,59.7
2017-05-27T07:55:52.762Z,56.9
2017-05-27T07:57:00.307Z,59.2
2017-05-27T07:58:07.464Z,60
2017-05-27T07:59:14.627Z,59.3
2017-05-27T08:00:22.122Z,57
2017-05-27T08:01:29.959Z,57.6
2017-05-27T08:02:37.498Z,56.6
2017-05-27T08:03:44.987Z,58.5
2017-05-27T08:04:52.480Z,56.5
2017-05-27T08:05:59.632Z,57.3
2017-05-27T08:07:07.425Z,57.2
2017-05-27T08:08:14.915Z,55.4
2017-05-27T08:09:22.406Z,56.7
2017-05-27T08:10:29.898Z,56.9
2017-05-27T08:11:37.386Z,56
2017-05-27T08:12:45.236Z,55.1
2017-05-27T08:13:52.737Z,56.1
2017-05-27T08:15:00.228Z,55.7
2017-05-27T08:16:07.386Z,56
2017-05-27T08:17:14.880Z,57
2017-05-27T08:18:22.343Z,56.4
2017-05-27T08:19:29.836Z,56.5
2017-05-27T08:20:37.322Z,56.9
2017-05-27T08:21:44.823Z,56.7
2017-05-27T08:22:52.322Z,55.5
2017-05-27T08:24:00.265Z,57
2017-05-27T08:25:07.752Z,55.7
2017-05-27T08:26:15.238Z,55.2
2017-05-27T08:27:23.133Z,57.3
2017-05-27T08:28:30.290Z,56.7
2017-05-27T08:29:37.752Z,56
2017-05-27T08:30:45.242Z,56.5
2017-05-27T08:31:52.733Z,56.2
2017-05-27T08:33:00.237Z,55
2017-05-27T08:34:07.726Z,57
2017-05-27T08:35:15.515Z,57.1
2017-05-27T08:36:23.010Z,57.2
2017-05-27T08:37:30.500Z,54.1
2017-05-27T08:38:37.669Z,54.5
2017-05-27T08:39:45.159Z,55.1
2017-05-27T08:40:52.952Z,54.7
2017-05-27T08:42:00.438Z,53.4
2017-05-27T08:43:07.596Z,55.8
2017-05-27T08:44:14.753Z,51.6
2017-05-27T08:45:22.256Z,53.3
2017-05-27T08:46:30.050Z,53.6
2017-05-27T08:47:37.217Z,54.3
2017-05-27T08:48:44.709Z,52.3
2017-05-27T08:49:52.200Z,54.6
2017-05-27T08:50:59.699Z,54
2017-05-27T08:52:07.483Z,52.8
2017-05-27T08:53:14.978Z,53.1
2017-05-27T08:54:22.466Z,53.1
2017-05-27T08:55:29.632Z,54.8
2017-05-27T08:56:37.120Z,54
2017-05-27T08:57:44.911Z,54.2
2017-05-27T08:58:52.398Z,54
2017-05-27T08:59:59.891Z,52.6
2017-05-27T09:01:07.381Z,53.5
2017-05-27T09:02:14.874Z,51.2
2017-05-27T09:03:22.932Z,52.6
2017-05-27T09:04:30.411Z,53.3
2017-05-27T09:05:37.902Z,52.3
2017-05-27T09:06:45.392Z,53.2
2017-05-27T09:07:52.878Z,53.3
2017-05-27T09:09:00.665Z,51.7
2017-05-27T09:10:07.832Z,49.8
2017-05-27T09:11:14.992Z,51.6
2017-05-27T09:12:22.483Z,49.7
2017-05-27T09:13:29.647Z,51.6
2017-05-27T09:14:37.438Z,52.1
2017-05-27T09:15:44.929Z,50.7
2017-05-27T09:16:52.422Z,53.2
2017-05-27T09:17:59.912Z,49.2
2017-05-27T09:19:07.402Z,49.4
2017-05-27T09:20:15.190Z,50.2
2017-05-27T09:21:22.679Z,51.2
2017-05-27T09:22:30.191Z,53
2017-05-27T09:23:37.679Z,52.8
2017-05-27T09:24:44.844Z,51
2017-05-27T09:25:52.635Z,53.4
2017-05-27T09:27:00.128Z,49.7
2017-05-27T09:28:07.623Z,49.9
2017-05-27T09:29:15.113Z,49.6
2017-05-27T09:30:22.604Z,49.2
2017-05-27T09:31:30.065Z,51.3
2017-05-27T09:32:37.553Z,50.8
2017-05-27T09:33:45.047Z,52.9
2017-05-27T09:34:52.538Z,52
2017-05-27T09:35:59.699Z,48.5
2017-05-27T09:37:07.170Z,49.7
2017-05-27T09:38:14.327Z,49.5
2017-05-27T09:39:21.822Z,49.6
2017-05-27T09:40:29.315Z,49.7
2017-05-27T09:41:36.808Z,49.8
2017-05-27T09:42:44.594Z,50
2017-05-27T09:43:52.088Z,47.9
2017-05-27T09:44:59.577Z,48.4
2017-05-27T09:46:07.061Z,48.9
2017-05-27T09:47:14.559Z,48.9
2017-05-27T09:48:22.401Z,48.2
2017-05-27T09:49:29.893Z,51.4
2017-05-27T09:50:37.388Z,50.1
2017-05-27T09:51:44.879Z,50.4
2017-05-27T09:52:52.044Z,48.1
2017-05-27T09:53:59.885Z,49.8
2017-05-27T09:55:07.372Z,49.4
2017-05-27T09:56:14.542Z,45.1
2017-05-27T09:57:22.058Z,44.5
2017-05-27T09:58:29.550Z,45.4
2017-05-27T09:59:37.400Z,46.2
2017-05-27T10:00:44.901Z,49.2
2017-05-27T10:01:52.416Z,48.1
2017-05-27T10:02:59.926Z,48.1
2017-05-27T10:04:07.418Z,45.3
2017-05-27T10:05:15.221Z,45.6
2017-05-27T10:06:22.711Z,46.3
2017-05-27T10:07:30.198Z,47.4
2017-05-27T10:08:37.693Z,44.3
2017-05-27T10:09:45.184Z,44
2017-05-27T10:10:53.029Z,46.5
2017-05-27T10:12:00.518Z,44.9
2017-05-27T10:13:07.677Z,43.8
2017-05-27T10:14:15.168Z,44.6
2017-05-27T10:15:22.668Z,46.4
2017-05-27T10:16:30.463Z,47.3
2017-05-27T10:17:37.962Z,46.9
2017-05-27T10:18:45.454Z,45.6
2017-05-27T10:19:52.948Z,47.8
2017-05-27T10:21:00.437Z,44.9
2017-05-27T10:22:08.229Z,43.7
2017-05-27T10:23:15.722Z,44.1
2017-05-27T10:24:23.213Z,47.8
2017-05-27T10:25:30.708Z,46.6
2017-05-27T10:26:38.200Z,43.6
2017-05-27T10:27:45.991Z,42.9
2017-05-27T10:28:53.488Z,43.8
2017-05-27T10:30:00.648Z,43.8
2017-05-27T10:31:08.138Z,42.7
2017-05-27T10:32:15.631Z,44.3
2017-05-27T10:33:23.154Z,45.3
2017-05-27T10:34:30.634Z,45.1
2017-05-27T10:35:38.132Z,44.9
2017-05-27T10:36:45.625Z,42.9
2017-05-27T10:37:53.129Z,45.2
2017-05-27T10:39:00.973Z,44
2017-05-27T10:40:08.464Z,43.4
2017-05-27T10:41:15.960Z,44.1
2017-05-27T10:42:23.451Z,42.7
2017-05-27T10:43:30.942Z,45.4
2017-05-27T10:44:38.748Z,42.8
2017-05-27T10:45:46.241Z,44.1
2017-05-27T10:46:53.404Z,44.1
2017-05-27T10:48:00.578Z,42.9
2017-05-27T10:49:08.066Z,44.2
2017-05-27T10:50:15.859Z,44
2017-05-27T10:51:23.347Z,43.1
2017-05-27T10:52:30.841Z,45.5
2017-05-27T10:53:37.995Z,43.2
2017-05-27T10:54:45.493Z,43.8
2017-05-27T10:55:53.342Z,42.8
2017-05-27T10:57:00.839Z,41.8
2017-05-27T10:58:08.332Z,42
2017-05-27T10:59:15.825Z,44.7
2017-05-27T11:00:23.318Z,43.3
2017-05-27T11:01:31.165Z,43.8
2017-05-27T11:02:38.664Z,44.6
2017-05-27T11:03:45.827Z,41.4
2017-05-27T11:04:53.327Z,42.6
2017-05-27T11:06:00.818Z,43.4
2017-05-27T11:07:08.658Z,40.6
2017-05-27T11:08:16.150Z,41.4
2017-05-27T11:09:23.647Z,42.9
2017-05-27T11:10:31.148Z,40.2
2017-05-27T11:11:38.643Z,40.3
2017-05-27T11:12:46.492Z,41.2
2017-05-27T11:13:53.981Z,43.4
2017-05-27T11:15:01.146Z,43.6
2017-05-27T11:16:08.644Z,43.6
2017-05-27T11:17:16.140Z,42.7
2017-05-27T11:18:23.609Z,41
2017-05-27T11:19:31.104Z,41.2
2017-05-27T11:20:38.600Z,40.9
2017-05-27T11:21:46.091Z,42.8
2017-05-27T11:22:53.586Z,42.2
2017-05-27T11:24:01.431Z,39.6
2017-05-27T11:25:08.930Z,41.6
2017-05-27T11:26:16.420Z,43.3
2017-05-27T11:27:23.912Z,41.8
2017-05-27T11:28:31.406Z,45.5
2017-05-27T11:29:39.198Z,40.7
2017-05-27T11:30:46.357Z,40.6
2017-05-27T11:31:53.852Z,40
2017-05-27T11:33:01.353Z,41.8
2017-05-27T11:34:08.848Z,39.4
2017-05-27T11:35:16.690Z,43.1
2017-05-27T11:36:24.185Z,43.7
2017-05-27T11:37:31.348Z,42.1
2017-05-27T11:38:38.842Z,40.9
2017-05-27T11:39:46.340Z,41.5
2017-05-27T11:40:54.183Z,38.9
2017-05-27T11:42:01.677Z,44.7
2017-05-27T11:43:08.843Z,43
2017-05-27T11:44:16.005Z,40.1
2017-05-27T11:45:23.187Z,38.4
2017-05-27T11:46:30.702Z,41.6
2017-05-27T11:47:38.194Z,40.2
2017-05-27T11:48:45.697Z,43.6
2017-05-27T11:49:53.187Z,39.9
2017-05-27T11:51:00.687Z,38
2017-05-27T11:52:08.529Z,38.1
2017-05-27T11:53:16.026Z,40.6
2017-05-27T11:54:23.203Z,40.5
2017-05-27T11:55:30.694Z,42.1
2017-05-27T11:56:38.186Z,40.4
2017-05-27T11:57:46.035Z,42.2
2017-05-27T11:58:53.528Z,43
2017-05-27T12:00:01.023Z,42.9
2017-05-27T12:01:08.513Z,40.7
2017-05-27T12:02:16.017Z,39.7
2017-05-27T12:03:23.864Z,40.7
2017-05-27T12:04:31.354Z,41.4
2017-05-27T12:05:38.851Z,40.4
2017-05-27T12:06:46.342Z,41
2017-05-27T12:07:53.837Z,38.9
2017-05-27T12:09:01.679Z,39.3
2017-05-27T12:10:09.188Z,40.9
2017-05-27T12:11:16.691Z,40
2017-05-27T12:12:24.187Z,40.7
2017-05-27T12:13:31.681Z,39
2017-05-27T12:14:39.474Z,42.3
2017-05-27T12:15:46.646Z,40.9
2017-05-27T12:16:54.139Z,40.6
2017-05-27T12:18:01.632Z,39.2
2017-05-27T12:19:09.128Z,39.4
2017-05-27T12:20:16.974Z,38.8
2017-05-27T12:21:24.467Z,39
2017-05-27T12:22:31.959Z,40.9
2017-05-27T12:23:39.459Z,39.1
2017-05-27T12:24:46.963Z,41
2017-05-27T12:25:54.807Z,40.3
2017-05-27T12:27:02.303Z,40.2
2017-05-27T12:28:09.673Z,40
2017-05-27T12:29:17.166Z,40.4
2017-05-27T12:30:24.658Z,39
2017-05-27T12:31:32.508Z,41
2017-05-27T12:32:39.674Z,40.3
2017-05-27T12:33:47.172Z,40.5
2017-05-27T12:34:54.663Z,39.9
2017-05-27T12:36:02.159Z,41.7
2017-05-27T12:37:10.004Z,39
2017-05-27T12:38:17.493Z,38.4
2017-05-27T12:39:24.987Z,41.6
2017-05-27T12:40:32.484Z,40.4
2017-05-27T12:41:39.976Z,40.8
2017-05-27T12:42:47.825Z,39.6
2017-05-27T12:43:55.311Z,39.7
2017-05-27T12:45:02.802Z,39.4
2017-05-27T12:46:10.298Z,41.8
2017-05-27T12:47:17.793Z,39.9
2017-05-27T12:48:25.589Z,40
2017-05-27T12:49:33.087Z,37.3
2017-05-27T12:50:40.589Z,37.2
2017-05-27T12:51:48.079Z,38.8
2017-05-27T12:52:55.581Z,38.5
2017-05-27T12:54:03.426Z,40.3
2017-05-27T12:55:10.943Z,40.3
2017-05-27T12:56:18.438Z,38.6
2017-05-27T12:57:25.598Z,41.7
2017-05-27T12:58:33.091Z,39.8
2017-05-27T12:59:40.935Z,40.2
2017-05-27T13:00:48.101Z,38.9
2017-05-27T13:01:55.645Z,40.5
2017-05-27T13:03:03.139Z,39.6
2017-05-27T13:04:10.304Z,40.7
2017-05-27T13:05:17.763Z,40.3
2017-05-27T13:06:25.255Z,40.4
2017-05-27T13:07:32.748Z,39.6
2017-05-27T13:08:40.247Z,40.5
2017-05-27T13:09:47.410Z,41.9
2017-05-27T13:10:54.930Z,40.4
2017-05-27T13:12:02.422Z,40.7
2017-05-27T13:13:09.608Z,40.9
2017-05-27T13:14:17.122Z,41.5
2017-05-27T13:15:23.948Z,37.6
2017-05-27T13:16:31.797Z,37.3
2017-05-27T13:17:39.296Z,40.3
2017-05-27T13:18:46.794Z,39.8
2017-05-27T13:19:54.292Z,38.7
2017-05-27T13:21:01.786Z,41.8
2017-05-27T13:22:09.626Z,39
2017-05-27T13:23:17.135Z,38
2017-05-27T13:24:24.623Z,40.9
2017-05-27T13:25:32.115Z,38.9
2017-05-27T13:26:39.614Z,39.1
2017-05-27T13:27:47.081Z,39.4
2017-05-27T13:28:54.581Z,39.7
2017-05-27T13:30:02.081Z,39.5
2017-05-27T13:31:09.576Z,39.3
2017-05-27T13:32:17.083Z,39.3
2017-05-27T13:33:24.875Z,40.8
2017-05-27T13:34:32.372Z,40.2
2017-05-27T13:35:39.871Z,38.5
2017-05-27T13:36:47.357Z,39.9
2017-05-27T13:37:54.852Z,38.9
2017-05-27T13:39:02.319Z,38.1
2017-05-27T13:40:09.480Z,37.7
2017-05-27T13:41:16.643Z,36.5
2017-05-27T13:42:24.134Z,38.4
2017-05-27T13:43:31.629Z,38.5
2017-05-27T13:44:39.145Z,38.9
2017-05-27T13:45:46.647Z,38
2017-05-27T13:46:53.806Z,40.3
2017-05-27T13:48:01.304Z,41.6
2017-05-27T13:49:08.805Z,41.1
2017-05-27T13:50:16.648Z,40.8
2017-05-27T13:51:24.139Z,38
2017-05-27T13:52:31.634Z,38.6
2017-05-27T13:53:39.128Z,38.8
2017-05-27T13:54:46.619Z,39.3
2017-05-27T13:55:54.464Z,38.1
2017-05-27T13:57:01.637Z,36.4
2017-05-27T13:58:09.133Z,38
2017-05-27T13:59:16.630Z,37.2
2017-05-27T14:00:24.123Z,35.9
2017-05-27T14:01:31.918Z,39.1
2017-05-27T14:02:39.419Z,41.6
2017-05-27T14:03:46.916Z,39.3
2017-05-27T14:04:54.423Z,36.5
2017-05-27T14:06:01.916Z,37.4
2017-05-27T14:07:09.761Z,38
2017-05-27T14:08:17.275Z,39
2017-05-27T14:09:24.438Z,40.5
2017-05-27T14:10:31.934Z,37.4
2017-05-27T14:11:39.431Z,39.5
2017-05-27T14:12:47.227Z,36.1
2017-05-27T14:13:54.724Z,38.9
2017-05-27T14:15:02.217Z,41
2017-05-27T14:17:31.791Z,38.1
2017-05-27T14:18:38.977Z,37.4
2017-05-27T14:19:46.477Z,40
2017-05-27T14:20:53.973Z,39.1
2017-05-27T14:22:01.466Z,36.1
2017-05-27T14:23:08.958Z,39.1
2017-05-27T14:24:16.850Z,37.6
2017-05-27T14:25:24.340Z,37.3
2017-05-27T14:26:31.837Z,37.4
2017-05-27T14:27:39.333Z,36.5
2017-05-27T14:28:46.829Z,40.6
2017-05-27T14:29:54.680Z,37.2
2017-05-27T14:31:02.181Z,36.3
2017-05-27T14:32:09.677Z,37.5
2017-05-27T14:33:16.842Z,36.2
2017-05-27T14:34:24.340Z,40
2017-05-27T14:35:32.183Z,36.9
2017-05-27T14:36:39.680Z,36
2017-05-27T14:37:47.181Z,35.9
2017-05-27T14:38:54.674Z,36.6
2017-05-27T14:40:02.185Z,40.4
2017-05-27T14:41:10.028Z,37.8
2017-05-27T14:42:17.526Z,38.9
2017-05-27T14:43:25.032Z,38.3
2017-05-27T14:44:32.213Z,34.9
2017-05-27T14:45:39.712Z,36.3
2017-05-27T14:46:47.558Z,40.1
2017-05-27T14:47:55.051Z,36.3
2017-05-27T14:49:02.549Z,37.8
2017-05-27T14:50:10.056Z,40.6
2017-05-27T14:51:17.543Z,40
2017-05-27T14:52:25.064Z,38.8
2017-05-27T14:53:32.557Z,37.5
2017-05-27T14:54:40.052Z,36
2017-05-27T14:55:47.546Z,35.1
2017-05-27T14:56:55.047Z,36.1
2017-05-27T14:59:24.980Z,37.4
2017-05-27T15:00:32.473Z,40
2017-05-27T15:01:39.970Z,39.8
2017-05-27T15:02:47.464Z,38.7
2017-05-27T15:03:55.270Z,37.3
2017-05-27T15:05:02.435Z,35.7
2017-05-27T15:06:09.935Z,36.1
2017-05-27T15:07:17.427Z,38.8
2017-05-27T15:08:24.924Z,35.9
2017-05-27T15:09:32.720Z,35.8